Time;durP1;ratioP1;P1;durP2;ratioP2;P2;SDS_P1;SDS_P2;PMS_P1;PMS_P2;Temp;Humidity;BMP_temperature;BMP_pressure;BME280_temperature;BME280_humidity;BME280_pressure;Samples;Min_cycle;Max_cycle;Signal;HPM_P1;HPM_P2
2024/04/04 00:02:48;;;;;;;1.70;0.80;;;;;;;20.87;46.13;100081.73;2315274;76;51532;-81
2024/04/04 00:05:54;;;;;;;0.80;0.70;;;;;;;20.87;46.14;100087.64;2314988;76;50747;-81
2024/04/04 00:08:54;;;;;;;0.93;0.78;;;;;;;20.87;46.10;100084.42;2314136;76;22414;-81
2024/04/04 00:11:56;;;;;;;0.80;0.80;;;;;;;20.88;46.08;100077.17;2284281;76;51787;-81
2024/04/04 00:14:59;;;;;;;0.88;0.80;;;;;;;20.88;46.05;100075.34;2315527;76;51533;-81
2024/04/04 00:18:01;;;;;;;0.95;0.80;;;;;;;20.90;46.02;100075.63;2315471;76;51150;-82
2024/04/04 00:21:03;;;;;;;0.93;0.80;;;;;;;20.90;46.02;100075.11;2291256;76;50118;-81
2024/04/04 00:24:06;;;;;;;1.30;0.70;;;;;;;20.88;46.05;100069.95;2291268;76;52313;-81
2024/04/04 00:27:08;;;;;;;0.90;0.70;;;;;;;20.89;46.00;100081.54;2291109;76;51014;-81
2024/04/04 00:30:11;;;;;;;1.05;0.70;;;;;;;20.90;46.02;100083.70;2317148;76;51532;-82
2024/04/04 00:33:13;;;;;;;1.00;0.90;;;;;;;20.86;46.08;100084.13;2292678;76;50104;-82
2024/04/04 00:36:15;;;;;;;1.42;0.78;;;;;;;20.86;46.13;100078.75;2292260;76;51206;-82
2024/04/04 00:39:17;;;;;;;1.20;0.82;;;;;;;20.87;46.13;100076.36;2315848;76;50746;-81
2024/04/04 00:42:19;;;;;;;0.78;0.78;;;;;;;20.87;46.09;100077.70;2317298;76;50309;-82
2024/04/04 00:45:22;;;;;;;0.82;0.78;;;;;;;20.88;46.06;100078.52;2284294;76;49810;-80
2024/04/04 00:48:25;;;;;;;0.78;0.78;;;;;;;20.88;46.07;100083.90;2315510;76;50415;-82
2024/04/04 00:51:27;;;;;;;0.75;0.75;;;;;;;20.87;46.05;100081.73;2317182;76;51779;-81
2024/04/04 00:54:29;;;;;;;1.42;0.68;;;;;;;20.87;46.05;100086.30;2315137;76;50897;-81
2024/04/04 00:57:32;;;;;;;2.05;0.80;;;;;;;20.88;45.98;100084.75;2315339;76;51459;-81
2024/04/04 01:00:34;;;;;;;0.80;0.80;;;;;;;20.88;46.03;100078.52;2291342;76;50088;-81
2024/04/04 01:03:36;;;;;;;1.10;0.80;;;;;;;20.86;46.06;100084.13;2315427;76;50423;-82
2024/04/04 01:06:40;;;;;;;0.75;0.70;;;;;;;20.85;46.06;100081.64;2315198;76;50280;-81
2024/04/04 01:09:43;;;;;;;1.02;0.70;;;;;;;20.82;46.08;100079.38;2308306;76;51066;-81
2024/04/04 01:12:46;;;;;;;0.80;0.80;;;;;;;20.84;46.07;100081.34;2315452;76;51516;-80
2024/04/04 01:15:48;;;;;;;1.10;0.80;;;;;;;20.85;46.06;100085.67;2315286;76;50652;-81
2024/04/04 01:18:50;;;;;;;1.27;0.72;;;;;;;20.84;46.08;100084.03;2315419;76;50443;-81
2024/04/04 01:21:52;;;;;;;0.98;0.70;;;;;;;20.86;46.06;100088.16;2315354;76;50845;-82
2024/04/04 01:24:54;;;;;;;0.95;0.80;;;;;;;20.84;46.07;100082.17;2291136;76;50991;-81
2024/04/04 01:27:57;;;;;;;1.27;0.70;;;;;;;20.86;46.08;100076.59;2315213;76;51511;-81
2024/04/04 01:30:59;;;;;;;1.07;0.80;;;;;;;20.85;46.07;100071.70;2315382;76;51985;-82
2024/04/04 01:34:01;;;;;;;0.70;0.70;;;;;;;20.84;46.05;100071.41;2290874;76;50061;-82
2024/04/04 01:37:04;;;;;;;0.70;0.70;;;;;;;20.86;46.01;100076.59;2314887;76;50410;-81
2024/04/04 01:40:08;;;;;;;0.82;0.62;;;;;;;20.83;46.08;100076.98;2316929;76;50307;-82
2024/04/04 01:43:10;;;;;;;0.80;0.70;;;;;;;20.84;46.04;100067.91;2291432;76;51261;-81
2024/04/04 01:46:12;;;;;;;1.22;0.70;;;;;;;20.82;46.04;100070.79;2315202;76;51499;-81
2024/04/04 01:49:15;;;;;;;0.88;0.70;;;;;;;20.83;46.03;100069.77;2291172;76;52333;-81
2024/04/04 01:52:18;;;;;;;0.82;0.80;;;;;;;20.83;46.05;100062.20;2315462;76;50780;-82
2024/04/04 01:55:20;;;;;;;0.60;0.60;;;;;;;20.85;46.04;100078.42;2291099;76;50240;-81
2024/04/04 01:58:22;;;;;;;0.90;0.70;;;;;;;20.85;46.01;100071.70;2291085;76;49635;-80
2024/04/04 02:01:24;;;;;;;0.88;0.60;;;;;;;20.85;46.00;100068.20;2315465;76;50183;-81
2024/04/04 02:04:26;;;;;;;1.05;0.90;;;;;;;20.87;45.95;100067.47;2284491;76;50121;-82
2024/04/04 02:07:29;;;;;;;0.57;0.50;;;;;;;20.82;46.01;100065.94;2315265;76;52129;-82
2024/04/04 02:10:31;;;;;;;0.60;0.60;;;;;;;20.84;46.02;100066.55;2317376;76;51720;-82
2024/04/04 02:13:33;;;;;;;1.82;0.80;;;;;;;20.83;46.03;100068.92;2290914;76;51278;-82
2024/04/04 02:16:37;;;;;;;0.65;0.60;;;;;;;20.84;46.02;100063.87;2317054;75;50766;-83
2024/04/04 02:19:39;;;;;;;0.65;0.65;;;;;;;20.82;46.04;100060.03;2313851;76;51349;-81
2024/04/04 02:22:41;;;;;;;0.60;0.60;;;;;;;20.86;46.02;100063.14;2284350;76;51006;-81
2024/04/04 02:25:44;;;;;;;0.93;0.60;;;;;;;20.88;45.93;100063.73;2315353;76;50430;-80
2024/04/04 02:28:46;;;;;;;0.72;0.70;;;;;;;20.87;45.99;100067.47;2315649;76;51469;-82
2024/04/04 02:31:48;;;;;;;0.75;0.65;;;;;;;20.88;45.92;100063.73;2315539;76;50348;-81
2024/04/04 02:34:50;;;;;;;0.60;0.60;;;;;;;20.86;46.00;100059.93;2315376;76;50505;-80
2024/04/04 02:37:52;;;;;;;0.70;0.70;;;;;;;20.87;45.96;100058.88;2290810;76;50201;-81
2024/04/04 02:40:55;;;;;;;1.40;0.75;;;;;;;20.88;45.92;100063.73;2291398;76;51526;-81
2024/04/04 02:43:57;;;;;;;0.60;0.60;;;;;;;20.87;45.94;100066.12;2315372;76;50717;-82
2024/04/04 02:46:59;;;;;;;0.90;0.68;;;;;;;20.87;45.98;100063.44;2291102;76;50942;-82
2024/04/04 02:50:02;;;;;;;0.70;0.60;;;;;;;20.87;45.95;100060.75;2315406;76;50716;-81
2024/04/04 02:53:05;;;;;;;0.65;0.50;;;;;;;20.87;45.95;100067.47;2315538;76;51524;-82
2024/04/04 02:56:07;;;;;;;0.60;0.60;;;;;;;20.86;45.98;100063.97;2316993;75;50708;-82
2024/04/04 02:59:09;;;;;;;0.62;0.62;;;;;;;20.86;45.98;100062.62;2317295;76;50373;-81
2024/04/04 03:02:12;;;;;;;0.98;0.70;;;;;;;20.85;46.01;100056.09;2291188;76;49658;-81
2024/04/04 03:05:14;;;;;;;0.98;0.70;;;;;;;20.83;46.01;100056.82;2315180;76;51491;-81
2024/04/04 03:08:17;;;;;;;0.50;0.50;;;;;;;20.82;46.04;100053.84;2284455;76;50146;-81
2024/04/04 03:11:20;;;;;;;0.60;0.60;;;;;;;20.82;46.04;100054.66;2291326;76;50136;-82
2024/04/04 03:14:22;;;;;;;0.68;0.60;;;;;;;20.84;46.02;100059.84;2315369;76;51531;-82
2024/04/04 03:17:25;;;;;;;1.20;0.68;;;;;;;20.84;46.04;100062.52;2291017;76;50975;-82
2024/04/04 03:20:27;;;;;;;0.57;0.50;;;;;;;20.85;46.02;100063.64;2315380;76;51543;-82
2024/04/04 03:23:29;;;;;;;0.55;0.55;;;;;;;20.83;46.02;100065.73;2315435;76;50820;-83
2024/04/04 03:26:32;;;;;;;1.75;0.60;;;;;;;20.84;46.02;100063.87;2284100;76;50212;-82
2024/04/04 03:29:35;;;;;;;0.60;0.60;;;;;;;20.82;46.03;100064.59;2317200;76;50448;-81
2024/04/04 03:32:37;;;;;;;0.60;0.60;;;;;;;20.82;46.03;100064.59;2291140;76;50005;-81
2024/04/04 03:35:39;;;;;;;0.70;0.55;;;;;;;20.85;46.02;100064.16;2290886;76;50117;-82
2024/04/04 03:38:42;;;;;;;1.15;0.60;;;;;;;20.83;46.03;100060.36;2317103;76;51498;-82
2024/04/04 03:41:44;;;;;;;0.93;0.60;;;;;;;20.81;46.06;100062.42;2315343;76;51423;-81
2024/04/04 03:44:46;;;;;;;1.02;0.70;;;;;;;20.82;46.01;100070.79;2315292;76;51545;-81
2024/04/04 03:47:48;;;;;;;0.62;0.53;;;;;;;20.86;45.98;100065.83;2316906;76;51464;-81
2024/04/04 03:50:50;;;;;;;0.57;0.57;;;;;;;20.84;46.01;100066.55;2291093;76;50880;-81
2024/04/04 03:53:54;;;;;;;0.60;0.60;;;;;;;20.84;46.01;100066.55;2315410;76;50362;-82
2024/04/04 03:56:56;;;;;;;0.60;0.60;;;;;;;20.83;46.00;100075.15;2314796;76;50436;-81
2024/04/04 04:00:00;;;;;;;0.72;0.50;;;;;;;20.86;46.02;100083.31;2291020;76;49572;-81
2024/04/04 04:03:02;;;;;;;0.50;0.50;;;;;;;20.84;46.01;100080.82;2291387;76;51534;-81
2024/04/04 04:06:04;;;;;;;0.72;0.60;;;;;;;20.86;45.96;100087.34;2290891;76;50392;-81
2024/04/04 04:09:07;;;;;;;1.25;0.80;;;;;;;20.85;46.01;100087.84;2291101;76;51469;-82
2024/04/04 04:12:09;;;;;;;0.70;0.50;;;;;;;20.83;46.02;100092.63;2315434;76;51175;-81
2024/04/04 04:15:12;;;;;;;0.55;0.40;;;;;;;20.85;46.00;100097.25;2290814;76;50073;-82
2024/04/04 04:18:14;;;;;;;1.37;0.60;;;;;;;20.87;45.94;100097.05;2315330;76;51483;-82
2024/04/04 04:21:24;;;;;;;0.70;0.60;;;;;;;20.86;45.97;100104.30;2315455;76;51351;-81
2024/04/04 04:24:22;;;;;;;1.27;0.82;;;;;;;20.85;45.98;100109.88;2313190;76;22484;-81
2024/04/04 04:27:25;;;;;;;0.72;0.72;;;;;;;20.86;45.97;100108.33;2315080;76;51595;-82
2024/04/04 04:30:27;;;;;;;0.72;0.70;;;;;;;20.87;45.93;100115.88;2315473;76;50101;-81
2024/04/04 04:33:29;;;;;;;0.72;0.55;;;;;;;20.88;45.93;100114.83;2315440;76;50138;-81
2024/04/04 04:36:54;;;;;;;0.50;0.50;;;;;;;20.85;45.97;100112.56;2316779;75;50715;-82
2024/04/04 04:39:56;;;;;;;0.85;0.50;;;;;;;20.83;45.99;100116.83;2291019;76;52626;-81
2024/04/04 04:42:58;;;;;;;0.50;0.50;;;;;;;20.86;45.98;100118.27;2290946;76;51577;-81
2024/04/04 04:46:00;;;;;;;0.80;0.60;;;;;;;20.83;45.96;100111.45;2314987;76;51459;-81
2024/04/04 04:49:03;;;;;;;0.70;0.60;;;;;;;20.84;45.96;100114.95;2284186;76;49543;-80
2024/04/04 04:52:05;;;;;;;0.50;0.50;;;;;;;20.85;45.98;100120.63;2316960;76;50953;-81
2024/04/04 04:55:08;;;;;;;0.80;0.60;;;;;;;20.84;45.98;100120.34;2290701;76;51379;-81
2024/04/04 04:58:11;;;;;;;1.10;0.53;;;;;;;20.80;46.02;100114.53;2315202;76;50966;-81
2024/04/04 05:01:13;;;;;;;0.62;0.60;;;;;;;20.81;46.03;100123.45;2315377;76;50799;-80
2024/04/04 05:04:15;;;;;;;0.65;0.47;;;;;;;20.82;46.00;100122.41;2291258;76;49618;-81
2024/04/04 05:07:18;;;;;;;0.60;0.53;;;;;;;20.82;46.01;100133.98;2315281;76;50762;-82
2024/04/04 05:10:20;;;;;;;1.15;0.50;;;;;;;20.82;46.02;100129.13;2315502;76;51929;-81
2024/04/04 05:13:22;;;;;;;1.47;0.42;;;;;;;20.81;46.02;100124.27;2291002;76;49634;-81
2024/04/04 05:16:24;;;;;;;0.80;0.45;;;;;;;20.82;46.01;100126.44;2316915;75;51958;-81
2024/04/04 05:19:27;;;;;;;0.50;0.50;;;;;;;20.82;46.04;100134.50;2315549;76;50336;-82
2024/04/04 05:22:29;;;;;;;1.10;0.50;;;;;;;20.81;46.03;100143.62;2315581;76;50548;-81
2024/04/04 05:25:31;;;;;;;1.47;0.40;;;;;;;20.81;46.01;100140.93;2315782;76;50399;-81
2024/04/04 05:28:34;;;;;;;0.70;0.57;;;;;;;20.82;46.01;100142.57;2291210;76;49868;-82
2024/04/04 05:31:37;;;;;;;0.70;0.50;;;;;;;20.82;46.02;100142.57;2315673;75;50114;-82
2024/04/04 05:34:40;;;;;;;0.55;0.50;;;;;;;20.81;46.04;100149.00;2315965;76;51423;-82
2024/04/04 05:37:42;;;;;;;0.35;0.35;;;;;;;20.81;46.03;100152.50;2291508;76;49884;-81
2024/04/04 05:40:44;;;;;;;1.07;0.75;;;;;;;20.82;46.01;100153.33;2315805;76;51985;-82
2024/04/04 05:43:46;;;;;;;0.42;0.42;;;;;;;20.82;46.04;100157.36;2315876;76;51541;-82
2024/04/04 05:46:49;;;;;;;1.07;0.60;;;;;;;20.82;46.02;100162.73;2315475;76;51493;-81
2024/04/04 05:49:51;;;;;;;0.70;0.55;;;;;;;20.84;46.00;100163.36;2316057;76;50733;-82
2024/04/04 05:52:53;;;;;;;0.85;0.60;;;;;;;20.84;46.02;100166.05;2291810;76;50117;-82
2024/04/04 05:55:56;;;;;;;1.37;0.70;;;;;;;20.86;45.96;100159.95;2315694;76;50351;-83
2024/04/04 05:58:58;;;;;;;0.70;0.60;;;;;;;20.84;45.96;100162.84;2315761;76;50415;-81
2024/04/04 06:02:00;;;;;;;0.90;0.60;;;;;;;20.83;45.99;100175.13;2284980;76;51762;-83
2024/04/04 06:05:03;;;;;;;0.90;0.50;;;;;;;20.87;45.94;100162.94;2315869;76;50445;-82
2024/04/04 06:08:05;;;;;;;0.60;0.60;;;;;;;20.85;45.97;100160.97;2315959;76;51432;-82
2024/04/04 06:11:08;;;;;;;0.88;0.62;;;;;;;20.84;45.99;100157.98;2291851;76;50711;-81
2024/04/04 06:14:10;;;;;;;0.60;0.50;;;;;;;20.87;46.00;100168.31;2315726;76;51518;-82
2024/04/04 06:17:12;;;;;;;0.42;0.40;;;;;;;20.87;45.95;100170.48;2291271;76;50968;-81
2024/04/04 06:20:14;;;;;;;0.80;0.60;;;;;;;20.86;45.99;100163.98;2315826;76;51450;-81
2024/04/04 06:23:16;;;;;;;0.90;0.65;;;;;;;20.89;45.95;100159.52;2315910;76;50662;-81
2024/04/04 06:26:19;;;;;;;0.72;0.60;;;;;;;20.85;46.02;100152.90;2317317;75;51486;-82
2024/04/04 06:29:23;;;;;;;0.82;0.57;;;;;;;20.85;46.04;100156.41;2315927;76;51456;-83
2024/04/04 06:32:25;;;;;;;0.50;0.50;;;;;;;20.84;46.07;100151.26;2317539;76;50957;-81
2024/04/04 06:35:27;;;;;;;1.12;0.60;;;;;;;20.84;46.10;100149.92;2315563;76;50778;-81
2024/04/04 06:38:29;;;;;;;0.75;0.53;;;;;;;20.86;46.19;100157.27;2315705;76;51475;-83
2024/04/04 06:41:31;;;;;;;0.45;0.45;;;;;;;20.86;46.21;100148.67;2291362;76;50045;-82
2024/04/04 06:44:34;;;;;;;0.93;0.60;;;;;;;20.87;46.32;100146.28;2317316;76;51534;-82
2024/04/04 06:47:42;;;;;;;0.60;0.50;;;;;;;20.92;46.33;100148.86;2315574;76;50745;-82
2024/04/04 06:50:44;;;;;;;0.75;0.50;;;;;;;20.92;46.38;100162.31;2284917;76;49469;-82
2024/04/04 06:53:46;;;;;;;0.42;0.40;;;;;;;20.93;46.44;100162.08;2315506;76;50119;-81
2024/04/04 06:56:48;;;;;;;0.78;0.78;;;;;;;20.95;46.46;100160.02;2315053;76;50754;-82
2024/04/04 06:59:51;;;;;;;0.80;0.50;;;;;;;20.94;46.47;100165.09;2315496;76;50758;-81
2024/04/04 07:02:53;;;;;;;0.40;0.40;;;;;;;20.95;46.42;100168.08;2315395;76;51156;-81
2024/04/04 07:05:55;;;;;;;1.40;0.70;;;;;;;20.94;46.56;100166.97;2290769;76;50158;-81
2024/04/04 07:08:57;;;;;;;0.60;0.50;;;;;;;20.96;46.63;100168.91;2291304;76;51645;-82
2024/04/04 07:11:59;;;;;;;0.50;0.50;;;;;;;20.95;46.55;100163.23;2290956;76;50858;-81
2024/04/04 07:15:02;;;;;;;0.40;0.40;;;;;;;20.93;46.61;100162.08;2290824;76;51127;-81
2024/04/04 07:18:10;;;;;;;0.95;0.75;;;;;;;20.93;46.58;100160.73;2315185;76;50221;-81
2024/04/04 07:21:09;;;;;;;1.13;0.60;;;;;;;20.92;46.68;100157.75;2289765;76;22293;-83
2024/04/04 07:24:11;;;;;;;0.98;0.65;;;;;;;20.92;46.66;100158.28;2316745;76;51565;-82
2024/04/04 07:27:14;;;;;;;1.37;0.60;;;;;;;20.91;46.68;100164.18;2314888;76;51418;-80
2024/04/04 07:30:16;;;;;;;0.78;0.55;;;;;;;20.92;46.73;100173.89;2291023;76;51012;-81
2024/04/04 07:33:18;;;;;;;0.60;0.50;;;;;;;20.93;46.79;100166.64;2316873;76;51498;-81
2024/04/04 07:36:20;;;;;;;1.12;0.70;;;;;;;20.95;46.79;100175.33;2314901;76;51461;-82
2024/04/04 07:39:23;;;;;;;0.85;0.60;;;;;;;20.94;46.80;100162.41;2291097;76;50855;-82
2024/04/04 07:42:25;;;;;;;0.70;0.60;;;;;;;20.95;46.79;100162.70;2315078;76;50325;-81
2024/04/04 07:45:27;;;;;;;0.75;0.60;;;;;;;20.96;46.84;100164.88;2314942;76;51310;-82
2024/04/04 07:48:29;;;;;;;1.55;0.60;;;;;;;20.95;46.86;100164.05;2315144;76;50708;-82
2024/04/04 07:51:32;;;;;;;0.50;0.50;;;;;;;20.95;46.87;100166.73;2314894;76;52305;-80
2024/04/04 07:54:34;;;;;;;0.60;0.60;;;;;;;20.96;46.92;100172.94;2290232;76;51096;-81
2024/04/04 07:57:36;;;;;;;0.50;0.50;;;;;;;20.96;46.90;100175.63;2314761;76;50744;-82
2024/04/04 08:00:38;;;;;;;0.95;0.75;;;;;;;20.96;46.82;100172.45;2315140;76;51521;-81
2024/04/04 08:03:42;;;;;;;0.60;0.60;;;;;;;20.97;46.83;100175.44;2290722;76;51106;-81
2024/04/04 08:06:45;;;;;;;1.00;0.65;;;;;;;20.97;46.86;100171.39;2314785;76;51485;-82
2024/04/04 08:09:48;;;;;;;0.40;0.40;;;;;;;20.97;46.86;100175.44;2314886;76;50829;-81
2024/04/04 08:12:51;;;;;;;0.50;0.50;;;;;;;20.98;46.86;100173.56;2316851;76;50741;-82
2024/04/04 08:15:54;;;;;;;0.90;0.60;;;;;;;20.99;46.80;100169.83;2316801;75;50867;-83
2024/04/04 08:18:56;;;;;;;0.50;0.50;;;;;;;21.00;46.95;100170.16;2291114;76;50912;-83
2024/04/04 08:21:58;;;;;;;0.78;0.60;;;;;;;21.01;46.90;100179.34;2315337;76;50682;-82
2024/04/04 08:25:00;;;;;;;0.72;0.60;;;;;;;21.01;46.86;100175.30;2315236;76;51557;-82
2024/04/04 08:28:04;;;;;;;1.52;0.57;;;;;;;21.02;46.78;100163.52;2290995;76;50108;-83
2024/04/04 08:31:07;;;;;;;0.57;0.53;;;;;;;21.03;46.67;100165.16;2291545;76;52017;-82
2024/04/04 08:34:09;;;;;;;0.88;0.62;;;;;;;21.04;46.54;100156.08;2315573;76;50955;-82
2024/04/04 08:37:11;;;;;;;1.37;0.60;;;;;;;21.05;46.23;100155.55;2291006;76;50949;-83
2024/04/04 08:40:14;;;;;;;0.60;0.50;;;;;;;21.10;45.93;100152.52;2317320;76;51479;-82
2024/04/04 08:43:19;;;;;;;1.37;0.60;;;;;;;21.09;46.34;100153.58;2315472;76;51416;-81
2024/04/04 08:46:21;;;;;;;1.10;0.50;;;;;;;21.13;46.08;100151.80;2291351;76;49548;-83
2024/04/04 08:49:29;;;;;;;1.40;0.50;;;;;;;21.14;46.08;100150.23;2315573;76;51502;-81
2024/04/04 08:52:31;;;;;;;0.75;0.55;;;;;;;21.12;46.08;100142.91;2315475;76;50436;-82
2024/04/04 08:55:35;;;;;;;0.88;0.50;;;;;;;21.16;45.99;100152.19;2315236;76;51342;-82
2024/04/04 08:58:37;;;;;;;2.20;0.50;;;;;;;21.16;45.79;100153.53;2315437;76;52218;-81
2024/04/04 09:01:39;;;;;;;0.42;0.40;;;;;;;21.15;45.81;100159.15;2291224;76;50071;-81
2024/04/04 09:04:41;;;;;;;0.60;0.60;;;;;;;21.15;45.81;100161.84;2315485;76;51484;-82
2024/04/04 09:07:43;;;;;;;1.35;0.72;;;;;;;21.17;45.70;100153.86;2315203;76;50731;-82
2024/04/04 09:10:48;;;;;;;1.60;0.50;;;;;;;21.19;45.84;100154.98;2291213;76;51018;-81
2024/04/04 09:13:50;;;;;;;1.22;0.50;;;;;;;21.21;45.82;100156.42;2315785;76;22365;-81
2024/04/04 09:16:52;;;;;;;1.47;0.60;;;;;;;21.23;45.92;100140.08;2315290;76;50701;-81
2024/04/04 09:19:55;;;;;;;0.80;0.50;;;;;;;21.22;46.01;100135.22;2315243;76;51160;-81
2024/04/04 09:22:58;;;;;;;1.37;0.70;;;;;;;21.25;45.98;100137.48;2291048;76;51050;-81
2024/04/04 09:26:01;;;;;;;0.98;0.50;;;;;;;21.26;45.98;100143.16;2290918;76;49572;-81
2024/04/04 09:29:08;;;;;;;2.58;0.57;;;;;;;21.27;45.94;100131.86;2315436;76;50592;-82
2024/04/04 09:32:11;;;;;;;0.90;0.60;;;;;;;21.26;45.94;100128.87;2315495;76;50796;-80
2024/04/04 09:35:14;;;;;;;0.85;0.40;;;;;;;21.26;45.72;100132.39;2290680;76;49395;-80
2024/04/04 09:38:16;;;;;;;0.53;0.40;;;;;;;21.26;45.74;100137.77;2291623;76;50738;-82
2024/04/04 09:41:18;;;;;;;0.50;0.50;;;;;;;21.28;45.64;100133.53;2315419;76;51689;-83
2024/04/04 09:44:21;;;;;;;0.62;0.45;;;;;;;21.29;45.85;100133.83;2315559;76;51446;-82
2024/04/04 09:47:23;;;;;;;1.00;0.60;;;;;;;21.29;45.86;100125.75;2315161;76;51500;-81
2024/04/04 09:50:25;;;;;;;0.72;0.55;;;;;;;21.30;45.78;100134.16;2291094;76;51129;-81
2024/04/04 09:53:28;;;;;;;2.83;0.60;;;;;;;21.28;45.74;100122.77;2315247;76;51131;-81
2024/04/04 09:56:30;;;;;;;0.90;0.70;;;;;;;21.28;45.64;100128.15;2314979;76;51571;-80
2024/04/04 09:59:33;;;;;;;0.78;0.60;;;;;;;21.26;45.52;100127.53;2291159;76;51094;-81
2024/04/04 10:02:38;;;;;;;0.85;0.55;;;;;;;21.25;45.30;100133.44;2316967;76;51443;-81
2024/04/04 10:05:40;;;;;;;1.20;0.70;;;;;;;21.22;45.43;100137.05;2316675;75;50456;-81
2024/04/04 10:08:42;;;;;;;0.50;0.50;;;;;;;21.21;45.24;100132.73;2315259;76;50313;-81
2024/04/04 10:11:44;;;;;;;1.47;0.60;;;;;;;21.20;45.21;100133.25;2315297;76;50405;-81
2024/04/04 10:14:58;;;;;;;1.00;0.50;;;;;;;21.19;45.09;100125.37;2291084;76;50833;-81
2024/04/04 10:17:56;;;;;;;1.00;0.40;;;;;;;21.16;45.12;100125.29;2290543;76;22740;-81
2024/04/04 10:21:01;;;;;;;2.35;0.70;;;;;;;21.17;45.27;100126.11;2315170;76;50401;-81
2024/04/04 10:24:04;;;;;;;1.07;0.60;;;;;;;21.17;45.24;100118.03;2291223;76;49605;-81
2024/04/04 10:27:08;;;;;;;1.57;0.70;;;;;;;21.19;45.12;100111.92;2315128;76;50706;-81
2024/04/04 10:30:11;;;;;;;0.85;0.50;;;;;;;21.18;44.83;100110.29;2315030;76;51641;-81
2024/04/04 10:33:13;;;;;;;1.02;0.50;;;;;;;21.17;45.06;100106.78;2317050;76;51575;-83
2024/04/04 10:36:15;;;;;;;1.05;0.50;;;;;;;21.17;44.54;100104.58;2315032;75;50625;-81
2024/04/04 10:39:18;;;;;;;1.82;0.60;;;;;;;21.14;45.47;100105.02;2284304;76;50915;-82
2024/04/04 10:42:22;;;;;;;0.72;0.53;;;;;;;21.16;44.88;100102.42;2291315;76;50265;-82
2024/04/04 10:45:25;;;;;;;1.60;0.65;;;;;;;21.14;44.95;100100.98;2315087;76;51478;-81
2024/04/04 10:48:28;;;;;;;1.32;0.55;;;;;;;21.13;45.19;100103.38;2290894;76;50994;-82
2024/04/04 10:51:30;;;;;;;0.75;0.60;;;;;;;21.10;45.75;100104.63;2315091;76;51558;-81
2024/04/04 10:54:32;;;;;;;0.60;0.57;;;;;;;21.09;45.79;100102.47;2315114;76;50027;-81
2024/04/04 10:57:36;;;;;;;0.62;0.47;;;;;;;21.09;46.00;100101.12;2314746;76;51514;-83
2024/04/04 11:00:39;;;;;;;1.20;0.62;;;;;;;21.08;46.03;100104.83;2317092;76;50747;-84
2024/04/04 11:03:42;;;;;;;0.75;0.50;;;;;;;21.09;46.20;100102.95;2291304;76;52411;-84
2024/04/04 11:06:45;;;;;;;0.78;0.40;;;;;;;21.07;46.23;100099.16;2315562;76;50822;-85
2024/04/04 11:09:47;;;;;;;1.42;0.50;;;;;;;21.07;46.29;100099.68;2315448;76;50712;-84
2024/04/04 11:12:49;;;;;;;0.47;0.40;;;;;;;21.06;46.35;100100.17;2291469;76;50107;-83
2024/04/04 11:15:51;;;;;;;1.72;0.50;;;;;;;21.06;46.36;100104.73;2315459;76;50804;-84
2024/04/04 11:18:54;;;;;;;1.20;0.68;;;;;;;21.06;46.42;100105.55;2291446;76;51547;-84
2024/04/04 11:21:57;;;;;;;0.95;0.50;;;;;;;21.05;46.44;100098.53;2315704;76;51557;-82
2024/04/04 11:24:59;;;;;;;0.85;0.50;;;;;;;21.04;46.46;100099.59;2291065;76;50397;-82
2024/04/04 11:28:01;;;;;;;0.85;0.60;;;;;;;21.04;46.46;100092.86;2290985;76;49631;-83
2024/04/04 11:31:04;;;;;;;1.90;0.80;;;;;;;21.04;46.48;100088.83;2291284;76;50645;-83
2024/04/04 11:34:07;;;;;;;0.60;0.50;;;;;;;21.03;46.49;100089.84;2291396;76;50760;-83
2024/04/04 11:37:09;;;;;;;0.40;0.40;;;;;;;21.03;46.51;100084.47;2284738;76;49610;-83
2024/04/04 11:40:12;;;;;;;0.75;0.50;;;;;;;21.03;46.47;100081.77;2316036;76;50813;-83
2024/04/04 11:43:14;;;;;;;0.88;0.50;;;;;;;21.03;46.47;100072.36;2316149;76;50757;-83
2024/04/04 11:46:17;;;;;;;0.85;0.50;;;;;;;21.02;46.48;100057.27;2316208;76;50750;-84
2024/04/04 11:49:20;;;;;;;0.50;0.50;;;;;;;21.04;46.47;100058.39;2316488;76;50422;-83
2024/04/04 11:52:22;;;;;;;0.88;0.60;;;;;;;21.04;46.48;100053.01;2292471;76;49899;-82
2024/04/04 11:55:25;;;;;;;1.22;0.70;;;;;;;21.03;46.48;100052.19;2315960;76;50642;-83
2024/04/04 11:58:27;;;;;;;1.15;0.62;;;;;;;21.02;46.52;100046.52;2317990;76;52219;-83
2024/04/04 12:01:29;;;;;;;1.15;0.55;;;;;;;21.01;46.51;100033.27;2292388;76;51015;-82
2024/04/04 12:04:41;;;;;;;0.60;0.50;;;;;;;21.02;46.51;100038.97;2316314;76;51525;-82
2024/04/04 12:07:43;;;;;;;1.05;0.60;;;;;;;21.00;46.55;100033.80;2315343;76;50818;-83
2024/04/04 12:10:46;;;;;;;0.80;0.60;;;;;;;21.01;46.59;100029.23;2318174;76;51900;-81
2024/04/04 12:13:50;;;;;;;1.55;0.65;;;;;;;21.00;46.67;100035.14;2316102;76;50810;-82
2024/04/04 12:16:54;;;;;;;0.40;0.40;;;;;;;21.00;46.69;100025.72;2316204;76;21712;-84
2024/04/04 12:19:55;;;;;;;0.42;0.40;;;;;;;21.00;46.74;100023.03;2316906;76;22328;-83
2024/04/04 12:22:58;;;;;;;1.60;0.72;;;;;;;20.99;46.77;100024.58;2316614;76;50415;-82
2024/04/04 12:26:00;;;;;;;0.40;0.40;;;;;;;20.99;46.78;100014.67;2291906;76;49935;-83
2024/04/04 12:29:02;;;;;;;0.60;0.45;;;;;;;20.99;46.79;100013.83;2316798;76;50780;-84
2024/04/04 12:32:04;;;;;;;0.50;0.45;;;;;;;20.99;46.76;100007.95;2316001;76;51284;-83
2024/04/04 12:35:07;;;;;;;1.00;0.57;;;;;;;20.97;46.77;100005.98;2291704;75;50791;-83
2024/04/04 12:38:09;;;;;;;0.50;0.40;;;;;;;20.99;46.79;100005.27;2318462;76;50823;-84
2024/04/04 12:41:11;;;;;;;0.42;0.30;;;;;;;20.99;46.80;100001.72;2292083;76;50125;-83
2024/04/04 12:44:13;;;;;;;0.53;0.42;;;;;;;20.98;46.80;99993.36;2316204;76;50406;-84
2024/04/04 12:47:15;;;;;;;0.65;0.50;;;;;;;20.97;46.84;99985.81;2315964;76;50770;-84
2024/04/04 12:50:18;;;;;;;0.60;0.37;;;;;;;20.98;46.84;99987.45;2292479;76;50032;-84
2024/04/04 12:53:20;;;;;;;0.72;0.50;;;;;;;20.96;46.89;99984.18;2266832;76;50167;-84
2024/04/04 12:56:22;;;;;;;0.78;0.50;;;;;;;20.96;46.93;99974.77;2315991;76;51853;-83
2024/04/04 12:59:25;;;;;;;0.55;0.40;;;;;;;20.96;46.97;99970.73;2316658;76;51616;-84
2024/04/04 13:02:27;;;;;;;0.50;0.45;;;;;;;20.96;46.93;99964.50;2317033;76;49994;-83
2024/04/04 13:05:29;;;;;;;1.05;0.50;;;;;;;20.96;46.95;99957.28;2292439;76;49900;-84
2024/04/04 13:08:32;;;;;;;0.82;0.50;;;;;;;20.97;46.93;99955.41;2316930;76;51530;-83
2024/04/04 13:11:35;;;;;;;0.60;0.40;;;;;;;20.96;46.96;99949.22;2292601;76;50941;-84
2024/04/04 13:14:37;;;;;;;0.82;0.60;;;;;;;20.95;47.00;99939.48;2292089;76;49589;-84
2024/04/04 13:17:39;;;;;;;0.80;0.45;;;;;;;20.96;46.99;99938.45;2316426;76;50760;-84
2024/04/04 13:20:41;;;;;;;1.75;0.78;;;;;;;20.96;47.02;99937.11;2316862;76;51590;-84
2024/04/04 13:23:44;;;;;;;1.00;0.50;;;;;;;20.95;47.02;99934.10;2316662;76;50653;-84
2024/04/04 13:26:46;;;;;;;1.05;0.50;;;;;;;20.95;47.06;99932.76;2292228;76;49653;-84
2024/04/04 13:29:52;;;;;;;1.35;0.53;;;;;;;20.95;47.01;99924.69;2285396;76;51684;-84
2024/04/04 13:32:54;;;;;;;1.17;0.55;;;;;;;20.95;47.03;99922.52;2316753;76;50777;-83
2024/04/04 13:35:57;;;;;;;0.80;0.50;;;;;;;20.94;47.11;99923.05;2316510;76;50698;-84
2024/04/04 13:38:59;;;;;;;0.95;0.60;;;;;;;20.95;47.13;99904.52;2291814;76;49657;-83
2024/04/04 13:42:01;;;;;;;0.75;0.40;;;;;;;20.94;47.10;99898.03;2315901;76;50380;-83
2024/04/04 13:45:10;;;;;;;0.40;0.40;;;;;;;20.94;47.12;99886.75;2315419;76;50414;-83
2024/04/04 13:48:13;;;;;;;0.40;0.40;;;;;;;20.94;47.13;99889.44;2292033;76;51656;-83
2024/04/04 13:51:15;;;;;;;1.65;0.40;;;;;;;20.93;47.17;99886.42;2315720;76;51399;-83
2024/04/04 13:54:17;;;;;;;0.88;0.53;;;;;;;20.94;47.19;99880.55;2291693;76;50991;-83
2024/04/04 13:57:19;;;;;;;1.40;0.50;;;;;;;20.93;47.17;99877.02;2291366;76;50989;-82
2024/04/04 14:00:21;;;;;;;0.65;0.45;;;;;;;20.93;47.21;99873.50;2317346;76;50414;-83
2024/04/04 14:03:24;;;;;;;0.72;0.40;;;;;;;20.93;47.20;99878.88;2290905;76;51029;-82
2024/04/04 14:06:26;;;;;;;0.45;0.40;;;;;;;20.93;47.20;99875.66;2314967;76;50698;-83
2024/04/04 14:09:28;;;;;;;0.93;0.40;;;;;;;20.92;47.27;99864.63;2315513;76;50420;-82
2024/04/04 14:12:30;;;;;;;0.40;0.40;;;;;;;20.93;47.29;99851.99;2317918;76;50363;-84